createdAt,value
2018-07-05T00:01:04.190Z,99.99
2018-07-05T00:02:35.862Z,99.99
2018-07-05T00:04:07.334Z,99.99
2018-07-05T00:05:38.906Z,99.99
2018-07-05T00:07:10.484Z,99.99
2018-07-05T00:08:42.049Z,99.99
2018-07-05T00:10:13.620Z,99.99
2018-07-05T00:11:45.192Z,99.99
2018-07-05T00:13:16.764Z,99.99
2018-07-05T00:14:48.336Z,99.99
2018-07-05T00:16:19.907Z,99.99
2018-07-05T00:17:51.481Z,99.99
2018-07-05T00:19:23.051Z,99.99
2018-07-05T00:20:55.524Z,99.99
2018-07-05T00:22:26.195Z,99.99
2018-07-05T00:23:57.766Z,99.99
2018-07-05T00:25:29.339Z,99.99
2018-07-05T00:27:00.911Z,99.99
2018-07-05T00:28:32.482Z,99.99
2018-07-05T00:30:04.054Z,99.99
2018-07-05T00:31:35.625Z,99.99
2018-07-05T00:33:07.347Z,99.99
2018-07-05T00:34:38.768Z,99.99
2018-07-05T00:36:10.342Z,99.99
2018-07-05T00:37:41.912Z,99.99
2018-07-05T00:39:13.785Z,99.99
2018-07-05T00:40:45.056Z,99.99
2018-07-05T00:42:16.628Z,99.99
2018-07-05T00:43:48.199Z,99.99
2018-07-05T00:45:19.771Z,99.99
2018-07-05T00:46:51.343Z,99.99
2018-07-05T00:48:22.915Z,99.99
2018-07-05T00:49:54.487Z,99.99
2018-07-05T00:51:26.159Z,99.99
2018-07-05T00:52:57.629Z,99.99
2018-07-05T00:54:29.202Z,99.99
2018-07-05T00:56:00.773Z,99.99
2018-07-05T00:57:32.444Z,99.99
2018-07-05T00:59:03.917Z,99.99
2018-07-05T01:00:35.487Z,99.99
2018-07-05T01:02:07.060Z,99.99
2018-07-05T01:03:38.630Z,99.99
2018-07-05T01:05:10.201Z,99.99
2018-07-05T01:06:41.775Z,99.99
2018-07-05T01:08:13.345Z,99.99
2018-07-05T01:09:44.915Z,99.99
2018-07-05T01:11:16.487Z,99.99
2018-07-05T01:12:48.062Z,99.99
2018-07-05T01:14:19.629Z,99.99
2018-07-05T01:15:51.304Z,99.99
2018-07-05T01:17:22.775Z,99.99
2018-07-05T01:18:54.344Z,99.99
2018-07-05T01:20:25.915Z,99.99
2018-07-05T01:21:57.488Z,99.99
2018-07-05T01:23:29.058Z,99.99
2018-07-05T01:25:00.629Z,99.99
2018-07-05T01:26:32.200Z,99.99
2018-07-05T01:28:03.771Z,99.99
2018-07-05T01:29:35.343Z,99.99
2018-07-05T01:31:06.914Z,99.99
2018-07-05T01:32:38.485Z,99.99
2018-07-05T01:34:10.157Z,99.99
2018-07-05T01:35:41.628Z,99.99
2018-07-05T01:37:13.201Z,99.99
2018-07-05T01:38:44.770Z,99.99
2018-07-05T01:40:16.492Z,99.99
2018-07-05T01:41:47.913Z,99.99
2018-07-05T01:43:19.484Z,99.99
2018-07-05T01:44:51.058Z,99.99
2018-07-05T01:46:22.627Z,99.99
2018-07-05T01:47:54.197Z,99.99
2018-07-05T01:49:25.768Z,99.99
2018-07-05T01:50:57.340Z,99.99
2018-07-05T01:52:29.462Z,99.99
2018-07-05T01:54:00.482Z,99.99
2018-07-05T01:55:32.052Z,99.99
2018-07-05T01:57:03.624Z,99.99
2018-07-05T01:58:35.194Z,99.99
2018-07-05T02:00:06.766Z,99.99
2018-07-05T02:01:38.335Z,99.99
2018-07-05T02:03:09.905Z,99.99
2018-07-05T02:04:41.480Z,99.99
2018-07-05T02:06:13.048Z,99.99
2018-07-05T02:07:44.618Z,99.99
2018-07-05T02:09:16.189Z,99.99
2018-07-05T02:10:47.859Z,99.99
2018-07-05T02:12:19.330Z,99.99
2018-07-05T02:13:50.900Z,99.99
2018-07-05T02:15:22.470Z,99.99
2018-07-05T02:16:54.041Z,99.99
2018-07-05T02:18:25.619Z,99.99
2018-07-05T02:19:57.182Z,99.99
2018-07-05T02:21:28.757Z,99.99
2018-07-05T02:23:00.426Z,99.99
2018-07-05T02:24:31.894Z,99.99
2018-07-05T02:26:03.464Z,99.99
2018-07-05T02:27:35.035Z,99.99
2018-07-05T02:29:06.955Z,99.99
2018-07-05T02:30:38.180Z,99.99
2018-07-05T02:32:09.747Z,99.99
2018-07-05T02:33:41.315Z,99.99
2018-07-05T02:35:12.886Z,99.99
2018-07-05T02:36:44.456Z,99.99
2018-07-05T02:38:16.026Z,99.99
2018-07-05T02:39:47.597Z,99.99
2018-07-05T02:41:19.167Z,99.99
2018-07-05T02:42:50.737Z,99.99
2018-07-05T02:44:22.308Z,99.99
2018-07-05T02:45:53.881Z,99.99
2018-07-05T02:47:25.548Z,99.99
2018-07-05T02:48:57.018Z,99.99
2018-07-05T02:50:28.589Z,99.99
2018-07-05T02:52:00.163Z,99.99
2018-07-05T02:53:31.729Z,99.99
2018-07-05T02:55:03.299Z,99.99
2018-07-05T02:56:34.870Z,99.99
2018-07-05T02:58:06.441Z,99.99
2018-07-05T02:59:38.261Z,99.99
2018-07-05T03:01:09.581Z,99.99
2018-07-05T03:02:41.151Z,99.99
2018-07-05T03:04:12.721Z,99.99
2018-07-05T03:05:44.392Z,99.99
2018-07-05T03:07:15.862Z,99.99
2018-07-05T03:08:47.434Z,99.99
2018-07-05T03:10:19.002Z,99.99
2018-07-05T03:11:50.573Z,99.99
2018-07-05T03:13:22.142Z,99.99
2018-07-05T03:14:53.723Z,99.99
2018-07-05T03:16:25.291Z,99.99
2018-07-05T03:17:56.854Z,99.99
2018-07-05T03:19:28.431Z,99.99
2018-07-05T03:20:59.995Z,99.99
2018-07-05T03:22:31.564Z,99.99
2018-07-05T03:24:03.385Z,99.99
2018-07-05T03:25:34.704Z,99.99
2018-07-05T03:27:06.274Z,99.99
2018-07-05T03:28:37.844Z,99.99
2018-07-05T03:30:09.665Z,99.99
2018-07-05T03:31:40.989Z,99.99
2018-07-05T03:33:12.555Z,99.99
2018-07-05T03:34:44.126Z,99.99
2018-07-05T03:36:15.694Z,99.99
2018-07-05T03:37:47.265Z,99.99
2018-07-05T03:39:18.835Z,99.99
2018-07-05T03:40:50.404Z,99.99
2018-07-05T03:42:22.275Z,99.99
2018-07-05T03:43:53.544Z,99.99
2018-07-05T03:45:25.114Z,99.99
2018-07-05T03:46:56.683Z,99.99
2018-07-05T03:48:28.253Z,99.99
2018-07-05T03:49:59.823Z,99.99
2018-07-05T03:51:31.421Z,99.99
2018-07-05T03:53:02.963Z,99.99
2018-07-05T03:54:34.535Z,99.99
2018-07-05T03:56:06.103Z,99.99
2018-07-05T03:57:37.672Z,99.99
2018-07-05T03:59:09.242Z,99.99
2018-07-05T04:00:40.912Z,99.99
2018-07-05T04:02:12.382Z,99.99
2018-07-05T04:03:43.953Z,99.99
2018-07-05T04:05:15.521Z,99.99
2018-07-05T04:06:47.091Z,99.99
2018-07-05T04:08:18.685Z,99.99
2018-07-05T04:09:50.231Z,99.99
2018-07-05T04:11:21.801Z,99.99
2018-07-05T04:12:53.521Z,99.99
2018-07-05T04:14:24.943Z,99.99
2018-07-05T04:15:56.510Z,99.99
2018-07-05T04:17:28.080Z,99.99
2018-07-05T04:18:59.901Z,99.99
2018-07-05T04:20:31.220Z,99.99
2018-07-05T04:22:02.790Z,99.99
2018-07-05T04:23:34.359Z,99.99
2018-07-05T04:25:06.080Z,99.99
2018-07-05T04:26:37.501Z,99.99
2018-07-05T04:28:09.070Z,99.99
2018-07-05T04:29:40.639Z,99.99
2018-07-05T04:31:12.209Z,99.99
2018-07-05T04:32:43.779Z,99.99
2018-07-05T04:34:15.420Z,99.99
2018-07-05T04:35:46.919Z,99.99
2018-07-05T04:37:18.589Z,99.99
2018-07-05T04:38:50.060Z,99.99
2018-07-05T04:40:21.627Z,99.99
2018-07-05T04:41:53.197Z,99.99
2018-07-05T04:43:24.867Z,99.99
2018-07-05T04:44:56.341Z,99.99
2018-07-05T04:46:27.907Z,99.99
2018-07-05T04:47:59.574Z,99.99
2018-07-05T04:49:31.054Z,99.99
2018-07-05T04:51:02.616Z,99.99
2018-07-05T04:52:34.185Z,99.99
2018-07-05T04:54:05.756Z,99.99
2018-07-05T04:55:37.485Z,99.99
2018-07-05T04:57:08.895Z,99.99
2018-07-05T04:58:40.471Z,99.99
2018-07-05T05:00:12.034Z,99.99
2018-07-05T05:01:43.604Z,99.99
2018-07-05T05:03:15.173Z,99.99
2018-07-05T05:04:46.754Z,99.99
2018-07-05T05:06:18.313Z,99.99
2018-07-05T05:07:49.883Z,99.99
2018-07-05T05:09:21.454Z,99.99
2018-07-05T05:10:53.023Z,99.99
2018-07-05T05:12:24.605Z,99.99
2018-07-05T05:13:56.462Z,99.99
2018-07-05T05:15:27.736Z,99.99
2018-07-05T05:16:59.306Z,99.99
2018-07-05T05:18:30.871Z,99.99
2018-07-05T05:20:02.441Z,99.99
2018-07-05T05:21:34.011Z,99.99
2018-07-05T05:23:05.580Z,99.99
2018-07-05T05:24:37.150Z,99.99
2018-07-05T05:26:08.821Z,99.99
2018-07-05T05:27:40.292Z,99.99
2018-07-05T05:29:11.859Z,99.99
2018-07-05T05:30:43.428Z,99.99
2018-07-05T05:32:15.098Z,99.99
2018-07-05T05:33:46.568Z,99.99
2018-07-05T05:35:18.137Z,99.99
2018-07-05T05:36:49.707Z,99.99
2018-07-05T05:38:21.276Z,99.99
2018-07-05T05:39:52.845Z,99.99
2018-07-05T05:41:24.416Z,99.99
2018-07-05T05:42:55.985Z,99.99
2018-07-05T05:44:27.554Z,99.99
2018-07-05T05:45:59.123Z,99.99
2018-07-05T05:47:30.693Z,99.99
2018-07-05T05:49:02.262Z,99.99
2018-07-05T05:50:34.032Z,99.99
2018-07-05T05:52:05.401Z,99.99
2018-07-05T05:53:36.971Z,99.99
2018-07-05T05:55:08.542Z,99.99
2018-07-05T05:56:40.212Z,99.99
2018-07-05T05:58:11.680Z,99.99
2018-07-05T05:59:43.250Z,99.99
2018-07-05T06:01:14.820Z,99.99
2018-07-05T06:02:46.640Z,99.99
2018-07-05T06:04:17.959Z,99.99
2018-07-05T06:05:49.528Z,99.99
2018-07-05T06:07:21.103Z,99.99
2018-07-05T06:08:52.768Z,99.99
2018-07-05T06:10:24.238Z,99.99
2018-07-05T06:11:55.811Z,99.99
2018-07-05T06:13:27.376Z,99.99
2018-07-05T06:14:58.948Z,99.99
2018-07-05T06:16:30.517Z,99.99
2018-07-05T06:18:02.087Z,99.99
2018-07-05T06:19:33.655Z,99.99
2018-07-05T06:21:05.229Z,99.99
2018-07-05T06:22:36.795Z,99.99
2018-07-05T06:24:08.364Z,99.99
2018-07-05T06:25:39.970Z,99.99
2018-07-05T06:27:11.703Z,99.99
2018-07-05T06:28:43.076Z,99.99
2018-07-05T06:30:14.642Z,99.99
2018-07-05T06:31:46.212Z,99.99
2018-07-05T06:33:18.032Z,99.99
2018-07-05T06:34:49.351Z,99.99
2018-07-05T06:36:20.922Z,99.99
2018-07-05T06:37:52.489Z,99.99
2018-07-05T06:39:24.059Z,99.99
2018-07-05T06:40:55.629Z,99.99
2018-07-05T06:42:27.199Z,99.99
2018-07-05T06:43:58.767Z,99.99
2018-07-05T06:45:30.636Z,99.99
2018-07-05T06:47:01.906Z,99.99
2018-07-05T06:48:33.475Z,99.99
2018-07-05T06:50:05.045Z,99.99
2018-07-05T06:51:36.614Z,99.99
2018-07-05T06:53:08.227Z,99.99
2018-07-05T06:54:39.752Z,99.99
2018-07-05T06:56:11.321Z,99.99
2018-07-05T06:57:42.991Z,99.99
2018-07-05T06:59:14.477Z,99.99
2018-07-05T07:00:46.031Z,99.99
2018-07-05T07:02:17.598Z,99.99
2018-07-05T07:03:49.519Z,99.99
2018-07-05T07:05:20.737Z,99.99
2018-07-05T07:06:52.306Z,99.99
2018-07-05T07:08:23.875Z,99.99
2018-07-05T07:09:55.595Z,99.99
2018-07-05T07:11:27.014Z,99.99
2018-07-05T07:12:58.583Z,99.99
2018-07-05T07:14:30.153Z,99.99
2018-07-05T07:16:01.870Z,99.99
2018-07-05T07:17:33.291Z,99.99
2018-07-05T07:19:04.861Z,99.99
2018-07-05T07:20:36.429Z,99.99
2018-07-05T07:22:08.099Z,99.99
2018-07-05T07:23:39.568Z,99.99
2018-07-05T07:25:11.137Z,99.99
2018-07-05T07:26:42.706Z,99.99
2018-07-05T07:28:14.375Z,99.99
2018-07-05T07:29:45.845Z,99.99
2018-07-05T07:31:17.448Z,99.99
2018-07-05T07:32:48.990Z,99.99
2018-07-05T07:34:20.803Z,99.99
2018-07-05T07:35:52.122Z,99.99
2018-07-05T07:37:23.743Z,99.99
2018-07-05T07:38:55.294Z,99.99
2018-07-05T07:40:26.931Z,99.99
2018-07-05T07:41:58.401Z,99.99
2018-07-05T07:43:29.969Z,99.99
2018-07-05T07:45:01.541Z,99.99
2018-07-05T07:46:33.258Z,99.99
2018-07-05T07:48:04.677Z,99.99
2018-07-05T07:49:36.245Z,99.99
2018-07-05T07:51:07.815Z,99.99
2018-07-05T07:52:39.484Z,99.99
2018-07-05T07:54:10.954Z,99.99
2018-07-05T07:55:42.522Z,99.99
2018-07-05T07:57:14.092Z,99.99
2018-07-05T07:58:45.861Z,99.99
2018-07-05T08:00:17.230Z,99.99
2018-07-05T08:01:48.799Z,99.99
2018-07-05T08:03:20.370Z,99.99
2018-07-05T08:04:52.188Z,99.99
2018-07-05T08:06:23.506Z,99.99
2018-07-05T08:07:55.115Z,99.99
2018-07-05T08:09:26.645Z,99.99
2018-07-05T08:10:58.214Z,99.99
2018-07-05T08:12:29.783Z,99.99
2018-07-05T08:14:01.352Z,99.99
2018-07-05T08:15:32.921Z,99.99
2018-07-05T08:17:04.745Z,99.99
2018-07-05T08:18:36.060Z,99.99
2018-07-05T08:20:07.629Z,99.99
2018-07-05T08:21:39.197Z,99.99
2018-07-05T08:23:10.767Z,99.99
2018-07-05T08:24:42.338Z,99.99
2018-07-05T08:26:13.908Z,99.99
2018-07-05T08:27:45.477Z,99.99
2018-07-05T08:29:17.143Z,99.99
2018-07-05T08:30:48.612Z,99.99
2018-07-05T08:32:20.181Z,99.99
2018-07-05T08:33:51.751Z,99.99
2018-07-05T08:35:23.670Z,99.99
2018-07-05T08:36:54.891Z,99.99
2018-07-05T08:38:26.458Z,99.99
2018-07-05T08:39:58.028Z,99.99
2018-07-05T08:41:29.599Z,99.99
2018-07-05T08:43:01.167Z,99.99
2018-07-05T08:44:32.736Z,99.99
2018-07-05T08:46:04.305Z,99.99
2018-07-05T08:47:35.874Z,99.99
2018-07-05T08:49:07.444Z,99.99
2018-07-05T08:50:39.013Z,99.99
2018-07-05T08:52:10.583Z,99.99
2018-07-05T08:53:42.253Z,99.99
2018-07-05T08:55:16.627Z,99.99
2018-07-05T08:56:45.293Z,99.99
2018-07-05T08:58:16.936Z,99.99
2018-07-05T08:59:48.532Z,99.99
2018-07-05T09:01:20.002Z,99.99
2018-07-05T09:02:51.571Z,99.99
2018-07-05T09:04:23.141Z,99.99
2018-07-05T09:05:54.962Z,99.99
2018-07-05T09:07:26.281Z,99.99
2018-07-05T09:08:57.851Z,99.99
2018-07-05T09:10:29.421Z,99.99
2018-07-05T09:12:01.091Z,99.99
2018-07-05T09:13:32.560Z,99.99
2018-07-05T09:15:04.131Z,99.99
2018-07-05T09:16:35.704Z,99.99
2018-07-05T09:18:07.420Z,99.99
2018-07-05T09:19:38.840Z,99.99
2018-07-05T09:21:10.410Z,99.99
2018-07-05T09:22:41.980Z,99.99
2018-07-05T09:24:13.549Z,99.99
2018-07-05T09:25:45.119Z,99.99
2018-07-05T09:27:16.690Z,99.99
2018-07-05T09:28:48.259Z,99.99
2018-07-05T09:30:20.030Z,99.99
2018-07-05T09:31:51.440Z,99.99
2018-07-05T09:33:22.969Z,99.99
2018-07-05T09:34:54.539Z,99.99
2018-07-05T09:36:26.361Z,99.99
2018-07-05T09:37:57.679Z,99.99
2018-07-05T09:39:29.248Z,99.99
2018-07-05T09:41:00.818Z,99.99
2018-07-05T09:42:32.390Z,99.99
2018-07-05T09:44:03.958Z,99.99
2018-07-05T09:45:35.532Z,99.99
2018-07-05T09:47:07.211Z,99.99
2018-07-05T09:48:38.967Z,99.99
2018-07-05T09:50:10.237Z,99.99
2018-07-05T09:51:41.830Z,99.99
2018-07-05T09:53:13.376Z,99.99
2018-07-05T09:54:44.946Z,99.99
2018-07-05T09:56:16.517Z,99.99
2018-07-05T09:57:48.086Z,99.99
2018-07-05T09:59:19.656Z,99.99
2018-07-05T10:00:51.326Z,99.99
2018-07-05T10:02:22.798Z,99.99
2018-07-05T10:03:54.366Z,99.99
2018-07-05T10:05:25.938Z,99.99
2018-07-05T10:06:57.856Z,99.99
2018-07-05T10:08:29.075Z,99.99
2018-07-05T10:10:00.646Z,99.99
2018-07-05T10:11:32.215Z,99.99
2018-07-05T10:13:03.818Z,99.99
2018-07-05T10:14:35.357Z,99.99
2018-07-05T10:16:06.926Z,99.99
2018-07-05T10:17:38.503Z,99.99
2018-07-05T10:19:10.066Z,99.99
2018-07-05T10:20:41.636Z,99.99
2018-07-05T10:22:13.207Z,99.99
2018-07-05T10:23:44.776Z,99.99
2018-07-05T10:25:16.448Z,99.99
2018-07-05T10:26:47.917Z,99.99
2018-07-05T10:28:19.486Z,99.99
2018-07-05T10:29:51.086Z,99.99
2018-07-05T10:31:22.627Z,99.99
2018-07-05T10:32:54.250Z,99.99
2018-07-05T10:34:25.769Z,99.99
2018-07-05T10:35:57.338Z,99.99
2018-07-05T10:37:29.160Z,99.99
2018-07-05T10:39:00.482Z,99.99
2018-07-05T10:40:32.050Z,99.99
2018-07-05T10:42:03.619Z,99.99
2018-07-05T10:43:35.292Z,99.99
2018-07-05T10:45:06.760Z,99.99
2018-07-05T10:46:38.635Z,99.99
2018-07-05T10:48:09.901Z,99.99
2018-07-05T10:49:41.471Z,99.99
2018-07-05T10:51:13.042Z,99.99
2018-07-05T10:54:16.184Z,99.99
2018-07-05T10:55:47.780Z,99.99
2018-07-05T10:57:19.327Z,99.99
2018-07-05T10:58:50.894Z,99.99
2018-07-05T11:00:22.669Z,99.99
2018-07-05T11:01:54.258Z,99.99
2018-07-05T11:03:25.778Z,99.99
2018-07-05T11:04:57.177Z,99.99
2018-07-05T11:06:28.748Z,99.99
2018-07-05T11:08:00.569Z,99.99
2018-07-05T11:09:31.889Z,99.99
2018-07-05T11:11:03.460Z,99.99
2018-07-05T11:12:35.031Z,99.99
2018-07-05T11:14:06.906Z,99.99
2018-07-05T11:15:38.175Z,99.99
2018-07-05T11:17:09.744Z,99.99
2018-07-05T11:18:41.316Z,99.99
2018-07-05T11:20:12.987Z,99.99
2018-07-05T11:21:44.661Z,99.99
2018-07-05T11:23:16.029Z,99.99
2018-07-05T11:24:47.651Z,99.99
2018-07-05T11:26:19.271Z,99.99
2018-07-05T11:27:50.742Z,99.99
2018-07-05T11:29:22.313Z,99.99
2018-07-05T11:30:53.885Z,99.99
2018-07-05T11:32:25.560Z,99.99
2018-07-05T11:33:57.030Z,99.99
2018-07-05T11:35:28.606Z,99.99
2018-07-05T11:37:00.170Z,99.99
2018-07-05T11:38:31.841Z,99.99
2018-07-05T11:40:03.316Z,99.99
2018-07-05T11:41:34.885Z,99.99
2018-07-05T11:43:06.658Z,99.99
2018-07-05T11:44:38.138Z,99.99
2018-07-05T11:46:09.601Z,99.99
2018-07-05T11:47:41.173Z,99.99
2018-07-05T11:49:12.745Z,99.99
2018-07-05T11:50:44.325Z,99.99
2018-07-05T11:52:15.975Z,99.99
2018-07-05T11:53:47.490Z,99.99
2018-07-05T11:55:19.033Z,99.99
2018-07-05T11:56:50.705Z,99.99
2018-07-05T11:58:22.179Z,99.99
2018-07-05T11:59:53.818Z,99.99
2018-07-05T12:01:25.326Z,99.99
2018-07-05T12:02:56.981Z,99.99
2018-07-05T12:04:28.675Z,99.99
2018-07-05T12:06:00.345Z,99.99
2018-07-05T12:07:31.613Z,99.99
2018-07-05T12:09:03.188Z,99.99
2018-07-05T12:10:34.772Z,99.99
2018-07-05T12:12:06.333Z,99.99
2018-07-05T12:13:37.925Z,99.99
2018-07-05T12:15:09.581Z,99.99
2018-07-05T12:16:41.054Z,99.99
2018-07-05T12:18:12.628Z,99.99
2018-07-05T12:19:44.217Z,99.99
2018-07-05T12:21:15.776Z,99.99
2018-07-05T12:22:47.958Z,99.99
2018-07-05T12:24:18.981Z,99.99
2018-07-05T12:27:22.102Z,99.99
2018-07-05T12:28:53.650Z,99.99
2018-07-05T12:30:25.225Z,99.99
2018-07-05T12:31:56.806Z,99.99
2018-07-05T12:33:28.683Z,99.99
2018-07-05T12:34:59.952Z,99.99
2018-07-05T12:36:31.527Z,99.99
2018-07-05T12:38:03.675Z,99.99
2018-07-05T12:41:06.559Z,99.99
2018-07-05T12:42:38.137Z,99.99
2018-07-05T12:44:09.407Z,99.99
2018-07-05T12:45:40.985Z,99.99
2018-07-05T12:47:12.965Z,99.99
2018-07-05T12:50:15.716Z,99.99
2018-07-05T12:51:47.341Z,99.99
2018-07-05T12:53:19.115Z,97.24
2018-07-05T12:54:50.450Z,96.37
2018-07-05T12:56:22.540Z,94.58
2018-07-05T12:57:53.606Z,93.38
2018-07-05T12:59:25.187Z,96.03
2018-07-05T13:00:56.764Z,96.17
2018-07-05T13:02:28.343Z,96.46
2018-07-05T13:04:00.008Z,94.87
2018-07-05T13:05:31.505Z,94.87
2018-07-05T13:07:03.082Z,95.69
2018-07-05T13:08:34.966Z,94.00
2018-07-05T13:10:06.778Z,92.02
2018-07-05T13:11:37.922Z,89.17
2018-07-05T13:13:09.402Z,88.02
2018-07-05T13:14:40.984Z,87.38
2018-07-05T13:17:44.365Z,87.96
2018-07-05T13:19:15.825Z,88.65
2018-07-05T13:20:47.613Z,90.05
2018-07-05T13:22:18.924Z,90.53
2018-07-05T13:23:50.465Z,88.55
2018-07-05T13:26:53.629Z,85.36
2018-07-05T13:29:57.193Z,85.36
2018-07-05T13:31:29.328Z,83.47
2018-07-05T13:32:59.998Z,82.35
2018-07-05T13:34:31.535Z,81.82
2018-07-05T13:37:34.863Z,84.43
2018-07-05T13:39:06.278Z,82.73
2018-07-05T13:42:09.707Z,83.23
2018-07-05T13:43:41.325Z,81.59
2018-07-05T13:45:12.607Z,83.42
2018-07-05T13:46:44.185Z,83.27
2018-07-05T13:48:15.944Z,82.02
2018-07-05T13:49:47.704Z,81.98
2018-07-05T13:51:18.932Z,80.03
2018-07-05T13:52:50.713Z,80.51
2018-07-05T13:54:22.093Z,78.42
2018-07-05T13:55:54.456Z,77.22
2018-07-05T13:57:25.254Z,80.38
2018-07-05T13:58:57.041Z,81.05
2018-07-05T14:00:28.425Z,79.06
2018-07-05T14:02:00.203Z,78.77
2018-07-05T14:03:31.606Z,78.29
2018-07-05T14:05:03.367Z,75.87
2018-07-05T14:06:34.747Z,77.45
2018-07-05T14:08:06.434Z,76.72
2018-07-05T14:09:38.113Z,76.04
2018-07-05T14:11:09.493Z,75.56
2018-07-05T14:12:41.075Z,75.92
2018-07-05T14:14:12.658Z,72.92
2018-07-05T14:15:44.544Z,74.40
2018-07-05T14:17:15.822Z,72.02
2018-07-05T14:18:47.406Z,72.77
2018-07-05T14:20:19.139Z,72.73
2018-07-05T14:21:50.574Z,71.95
2018-07-05T14:23:22.154Z,70.83
2018-07-05T14:24:53.838Z,71.28
2018-07-05T14:26:25.614Z,74.01
2018-07-05T14:29:28.690Z,72.36
2018-07-05T14:31:00.105Z,72.98
2018-07-05T14:32:32.058Z,72.02
2018-07-05T14:34:03.252Z,70.05
2018-07-05T14:35:35.376Z,68.92
2018-07-05T14:37:06.646Z,70.44
2018-07-05T14:38:37.996Z,67.24
2018-07-05T14:40:09.794Z,68.21
2018-07-05T14:43:13.269Z,70.18
2018-07-05T14:46:16.459Z,68.99
2018-07-05T14:47:47.485Z,68.18
2018-07-05T14:49:19.068Z,64.98
2018-07-05T14:50:50.652Z,64.69
2018-07-05T14:53:53.823Z,63.36
2018-07-05T14:56:56.987Z,65.34
2018-07-05T14:58:28.635Z,67.63
2018-07-05T15:00:00.157Z,65.75
2018-07-05T15:01:31.744Z,64.69
2018-07-05T15:03:03.342Z,63.88
2018-07-05T15:04:34.908Z,66.02
2018-07-05T15:06:06.593Z,67.05
2018-07-05T15:07:38.076Z,65.63
2018-07-05T15:10:41.246Z,62.48
2018-07-05T15:12:13.122Z,60.35
2018-07-05T15:13:44.438Z,58.95
2018-07-05T15:15:16.008Z,57.56
2018-07-05T15:16:47.585Z,59.25
2018-07-05T15:18:19.214Z,60.35
2018-07-05T15:19:50.921Z,60.80
2018-07-05T15:21:23.406Z,61.25
2018-07-05T15:22:54.125Z,61.38
2018-07-05T15:25:57.592Z,58.01
2018-07-05T15:27:28.687Z,58.21
2018-07-05T15:29:00.266Z,58.01
2018-07-05T15:30:31.860Z,57.95
2018-07-05T15:32:03.429Z,57.20
2018-07-05T15:33:35.015Z,57.29
2018-07-05T15:35:06.603Z,55.64
2018-07-05T15:36:38.186Z,56.18
2018-07-05T15:38:09.769Z,55.01
2018-07-05T15:39:41.356Z,53.75
2018-07-05T15:41:12.939Z,53.81
2018-07-05T15:42:45.461Z,53.11
2018-07-05T15:44:16.210Z,51.84
2018-07-05T15:45:47.696Z,53.47
2018-07-05T15:48:50.864Z,52.76
2018-07-05T15:50:22.754Z,50.92
2018-07-05T15:51:54.035Z,51.09
2018-07-05T15:53:25.620Z,49.51
2018-07-05T15:54:57.431Z,49.66
2018-07-05T15:56:28.790Z,48.61
2018-07-05T15:58:00.377Z,49.97
2018-07-05T15:59:31.961Z,48.71
2018-07-05T16:02:35.232Z,47.56
2018-07-05T16:04:07.223Z,44.79
2018-07-05T16:05:38.302Z,45.35
2018-07-05T16:07:09.887Z,47.20
2018-07-05T16:08:41.675Z,45.20
2018-07-05T16:10:13.079Z,45.81
2018-07-05T16:13:16.230Z,44.98
2018-07-05T16:14:47.815Z,44.56
2018-07-05T16:16:19.635Z,42.48
2018-07-05T16:17:50.986Z,43.33
2018-07-05T16:19:22.829Z,43.85
2018-07-05T16:20:54.260Z,43.26
2018-07-05T16:22:25.744Z,42.60
2018-07-05T16:23:57.380Z,47.10
2018-07-05T16:25:29.227Z,48.49
2018-07-05T16:27:00.602Z,50.02
2018-07-05T16:28:32.088Z,48.39
2018-07-05T16:30:03.677Z,48.19
2018-07-05T16:31:35.259Z,45.68
2018-07-05T16:33:07.148Z,42.24
2018-07-05T16:34:38.460Z,43.02
2018-07-05T16:36:10.036Z,44.51
2018-07-05T16:37:41.805Z,42.38
2018-07-05T16:39:13.493Z,42.50
2018-07-05T16:40:45.310Z,44.64
2018-07-05T16:42:16.364Z,46.77
2018-07-05T16:43:47.947Z,48.71
2018-07-05T16:45:19.532Z,46.44
2018-07-05T16:46:51.117Z,44.81
2018-07-05T16:49:54.534Z,45.15
2018-07-05T16:51:25.874Z,43.27
2018-07-05T16:52:57.460Z,43.43
2018-07-05T16:56:00.748Z,45.79
2018-07-05T16:57:32.317Z,45.40
2018-07-05T16:59:03.799Z,46.06
2018-07-05T17:00:35.385Z,46.33
2018-07-05T17:05:10.169Z,44.96
2018-07-05T17:06:41.728Z,43.54
2018-07-05T17:08:13.309Z,42.55
2018-07-05T17:11:16.506Z,41.66
2018-07-05T17:12:48.062Z,38.59
2018-07-05T17:14:19.644Z,40.68
2018-07-05T17:15:51.240Z,38.87
2018-07-05T17:17:23.354Z,37.52
2018-07-05T17:18:54.424Z,41.48
2018-07-05T17:20:25.983Z,40.08
2018-07-05T17:21:57.568Z,38.57
2018-07-05T17:25:00.769Z,41.38
2018-07-05T17:26:32.325Z,40.93
2018-07-05T17:28:03.910Z,39.53
2018-07-05T17:29:35.495Z,39.41
2018-07-05T17:34:10.349Z,39.00
2018-07-05T17:35:41.835Z,42.04
2018-07-05T17:37:13.419Z,44.48
2018-07-05T17:38:45.307Z,45.69
2018-07-05T17:40:16.849Z,43.19
2018-07-05T17:41:48.347Z,41.63
2018-07-05T17:43:19.757Z,41.86
2018-07-05T17:44:51.340Z,44.85
2018-07-05T17:47:55.582Z,44.00
2018-07-05T17:49:27.031Z,43.12
2018-07-05T17:50:57.702Z,44.58
2018-07-05T17:52:29.257Z,44.60
2018-07-05T17:54:01.252Z,44.79
2018-07-05T17:55:32.509Z,44.38
2018-07-05T17:57:04.005Z,41.83
2018-07-05T17:58:35.601Z,43.63
2018-07-05T18:00:07.398Z,45.17
2018-07-05T18:01:38.805Z,46.57
2018-07-05T18:03:10.336Z,42.86
2018-07-05T18:04:41.918Z,41.20
2018-07-05T18:06:13.501Z,40.66
2018-07-05T18:07:45.337Z,42.32
2018-07-05T18:09:16.717Z,40.21
2018-07-05T18:10:48.294Z,42.00
2018-07-05T18:13:51.720Z,44.85
2018-07-05T18:16:54.883Z,44.65
2018-07-05T18:18:26.181Z,42.27
2018-07-05T18:19:58.085Z,42.58
2018-07-05T18:21:29.339Z,43.22
2018-07-05T18:24:33.243Z,43.02
2018-07-05T18:26:04.088Z,41.38
2018-07-05T18:27:35.656Z,38.73
2018-07-05T18:29:07.235Z,37.71
2018-07-05T18:30:38.818Z,37.70
2018-07-05T18:32:10.700Z,37.57
2018-07-05T18:33:42.040Z,38.01
2018-07-05T18:35:13.564Z,36.54
2018-07-05T18:36:45.179Z,36.87
2018-07-05T18:38:16.731Z,36.18
2018-07-05T18:39:48.820Z,36.07
2018-07-05T18:41:19.895Z,37.01
2018-07-05T18:42:51.478Z,39.43
2018-07-05T18:44:23.060Z,42.19
2018-07-05T18:45:54.643Z,44.68
2018-07-05T18:47:26.242Z,45.24
2018-07-05T18:50:29.694Z,41.28
2018-07-05T18:52:01.159Z,44.65
2018-07-05T18:53:32.915Z,46.18
2018-07-05T18:55:04.169Z,47.44
2018-07-05T18:56:35.727Z,43.67
2018-07-05T18:58:07.304Z,43.50
2018-07-05T18:59:39.189Z,46.13
2018-07-05T19:01:10.467Z,44.43
2018-07-05T19:02:42.149Z,45.14
2018-07-05T19:04:13.632Z,45.62
2018-07-05T19:05:45.415Z,47.38
2018-07-05T19:07:16.997Z,46.09
2018-07-05T19:08:48.729Z,45.28
2018-07-05T19:11:51.743Z,41.52
2018-07-05T19:13:23.121Z,40.16
2018-07-05T19:14:54.702Z,42.06
2018-07-05T19:16:26.400Z,44.74
2018-07-05T19:17:57.866Z,43.36
2018-07-05T19:19:29.451Z,46.06
2018-07-05T19:21:01.028Z,46.94
2018-07-05T19:22:32.912Z,46.55
2018-07-05T19:24:04.241Z,45.69
2018-07-05T19:25:36.318Z,43.99
2018-07-05T19:27:08.368Z,43.23
2018-07-05T19:28:39.211Z,42.65
2018-07-05T19:30:10.526Z,42.74
2018-07-05T19:31:42.096Z,42.86
2018-07-05T19:33:13.699Z,42.45
2018-07-05T19:36:17.044Z,46.11
2018-07-05T19:37:48.418Z,47.13
2018-07-05T19:39:20.000Z,48.95
2018-07-05T19:40:51.581Z,50.36
2018-07-05T19:43:54.742Z,57.68
2018-07-05T19:45:26.525Z,62.98
2018-07-05T19:46:57.971Z,65.69
2018-07-05T19:48:29.492Z,67.30
2018-07-05T19:50:01.073Z,68.82
2018-07-05T19:51:33.075Z,70.08
2018-07-05T19:53:04.223Z,71.40
2018-07-05T19:54:35.801Z,71.50
2018-07-05T19:56:07.381Z,71.94
2018-07-05T19:57:39.265Z,72.81
2018-07-05T19:59:10.541Z,74.17
2018-07-05T20:00:42.159Z,74.55
2018-07-05T20:02:13.699Z,74.36
2018-07-05T20:03:45.528Z,74.65
2018-07-05T20:06:48.453Z,74.52
2018-07-05T20:08:20.014Z,74.10
2018-07-05T20:09:51.593Z,75.41
2018-07-05T20:11:23.194Z,67.04
2018-07-05T20:12:55.088Z,69.84
2018-07-05T20:14:26.331Z,70.23
2018-07-05T20:15:57.907Z,69.94
2018-07-05T20:17:29.486Z,70.14
2018-07-05T20:19:01.123Z,71.88
2018-07-05T20:20:32.640Z,71.55
2018-07-05T20:22:04.319Z,68.65
2018-07-05T20:23:35.796Z,69.62
2018-07-05T20:25:07.389Z,69.23
2018-07-05T20:28:11.010Z,67.20
2018-07-05T20:29:42.120Z,70.68
2018-07-05T20:31:13.688Z,71.42
2018-07-05T20:32:45.259Z,73.06
2018-07-05T20:35:48.429Z,73.54
2018-07-05T20:37:19.989Z,73.11